Time;durP1;ratioP1;P1;durP2;ratioP2;P2;SDS_P1;SDS_P2;PMS_P1;PMS_P2;Temp;Humidity;BMP_temperature;BMP_pressure;BME280_temperature;BME280_humidity;BME280_pressure;Samples;Min_cycle;Max_cycle;Signal;HPM_P1;HPM_P2
2022/04/25 00:00:35;;;;;;;11.18;4.90;;;8.20;84.90;;;;;;5070898;28;20560;-45
2022/04/25 00:03:01;;;;;;;10.73;5.15;;;8.20;84.70;;;;;;5070726;28;20053;-43
2022/04/25 00:05:27;;;;;;;11.35;5.53;;;8.20;84.70;;;;;;5070429;28;20024;-42
2022/04/25 00:07:53;;;;;;;14.07;6.03;;;8.20;84.70;;;;;;5070466;28;20134;-41
2022/04/25 00:10:19;;;;;;;15.20;5.72;;;8.20;84.90;;;;;;5071354;28;20059;-47
2022/04/25 00:12:46;;;;;;;15.82;5.70;;;8.10;85.50;;;;;;5074400;28;20051;-41
2022/04/25 00:15:12;;;;;;;10.55;5.43;;;8.20;85.30;;;;;;5074032;28;20025;-43
2022/04/25 00:17:38;;;;;;;13.00;5.43;;;8.10;85.50;;;;;;5073927;28;20472;-50
2022/04/25 00:20:08;;;;;;;15.55;5.85;;;8.10;85.70;;;;;;5074258;28;20032;-50
2022/04/25 00:22:34;;;;;;;10.77;5.50;;;8.10;86.00;;;;;;5074134;28;20105;-46
2022/04/25 00:25:00;;;;;;;15.75;6.07;;;8.10;86.30;;;;;;5073872;28;20032;-40
2022/04/25 00:27:28;;;;;;;15.80;6.40;;;8.10;86.10;;;;;;5074241;28;20037;-44
2022/04/25 00:29:54;;;;;;;19.98;6.90;;;8.10;86.50;;;;;;5074084;28;20025;-40
2022/04/25 00:32:20;;;;;;;22.85;9.15;;;8.10;86.70;;;;;;5074000;28;20086;-44
2022/04/25 00:34:46;;;;;;;13.55;6.25;;;8.10;86.90;;;;;;5073970;28;20028;-41
2022/04/25 00:37:11;;;;;;;20.20;6.78;;;8.10;86.90;;;;;;5073699;28;20024;-44
2022/04/25 00:39:37;;;;;;;14.00;5.97;;;8.10;87.00;;;;;;5073929;28;20486;-53
2022/04/25 00:42:03;;;;;;;16.20;6.72;;;8.10;87.00;;;;;;5073982;28;20067;-40
2022/04/25 00:44:28;;;;;;;14.95;6.78;;;8.10;87.10;;;;;;5073745;28;20032;-44
2022/04/25 00:46:55;;;;;;;19.73;7.38;;;8.10;87.30;;;;;;5073665;28;20035;-46
2022/04/25 00:49:22;;;;;;;16.85;6.90;;;8.00;87.60;;;;;;5073914;28;20032;-50
2022/04/25 00:51:51;;;;;;;15.88;6.93;;;8.00;87.90;;;;;;5073619;28;20559;-50
2022/04/25 00:54:19;;;;;;;18.17;7.45;;;8.00;88.00;;;;;;5073555;28;20021;-54
2022/04/25 00:56:46;;;;;;;16.40;6.90;;;8.00;87.90;;;;;;5073194;28;20376;-46
2022/04/25 00:59:14;;;;;;;13.50;6.78;;;8.00;88.20;;;;;;5073495;28;20472;-50
2022/04/25 01:01:40;;;;;;;21.08;7.50;;;8.00;88.30;;;;;;5073491;28;20077;-51
2022/04/25 01:04:06;;;;;;;16.98;7.53;;;8.00;88.40;;;;;;5073196;28;20481;-45
2022/04/25 01:06:32;;;;;;;16.65;7.57;;;7.90;88.60;;;;;;5073120;28;20477;-53
2022/04/25 01:08:58;;;;;;;20.25;7.70;;;8.00;88.40;;;;;;5073282;28;20036;-50
2022/04/25 01:11:24;;;;;;;20.10;7.53;;;8.00;88.50;;;;;;5073361;28;20036;-51
2022/04/25 01:13:50;;;;;;;13.43;6.93;;;7.90;88.50;;;;;;5073307;28;20139;-46
2022/04/25 01:16:16;;;;;;;18.55;7.88;;;7.90;88.60;;;;;;5072979;28;20080;-46
2022/04/25 01:18:41;;;;;;;15.50;7.40;;;7.90;89.10;;;;;;5072822;28;20114;-53
2022/04/25 01:21:11;;;;;;;14.45;7.57;;;7.90;89.20;;;;;;5072777;28;20108;-46
2022/04/25 01:29:06;;;;;;;18.30;7.55;;;7.80;89.50;;;;;;5073034;28;20446;-46
2022/04/25 01:31:32;;;;;;;21.02;8.10;;;7.80;89.70;;;;;;5073052;28;20033;-45
2022/04/25 01:33:57;;;;;;;17.13;7.53;;;7.80;90.00;;;;;;5072855;28;20395;-40
2022/04/25 01:36:24;;;;;;;13.73;7.97;;;7.80;90.00;;;;;;5072542;28;20032;-40
2022/04/25 01:38:53;;;;;;;18.40;7.57;;;7.80;90.10;;;;;;5072879;28;20032;-46
2022/04/25 01:41:19;;;;;;;17.42;7.72;;;7.80;90.00;;;;;;5072727;28;20029;-46
2022/04/25 01:43:45;;;;;;;17.42;8.43;;;7.80;90.00;;;;;;5072642;28;20025;-40
2022/04/25 01:46:11;;;;;;;15.05;7.55;;;7.80;90.20;;;;;;5072318;28;20043;-48
2022/04/25 01:48:36;;;;;;;14.15;7.18;;;7.80;90.20;;;;;;5072521;28;20031;-40
2022/04/25 01:51:03;;;;;;;16.85;7.47;;;7.80;90.30;;;;;;5072256;28;20487;-46
2022/04/25 01:53:29;;;;;;;16.35;7.57;;;7.70;90.30;;;;;;5072363;28;20025;-40
2022/04/25 01:55:55;;;;;;;17.33;7.40;;;7.80;90.20;;;;;;5072181;28;20111;-46
2022/04/25 01:58:21;;;;;;;18.00;7.60;;;7.70;90.40;;;;;;5072241;28;20067;-45
2022/04/25 02:00:47;;;;;;;17.38;8.50;;;7.70;90.40;;;;;;5072428;28;20033;-47
2022/04/25 02:03:13;;;;;;;12.20;7.68;;;7.70;90.40;;;;;;5072388;28;20052;-45
2022/04/25 02:05:39;;;;;;;17.83;8.80;;;7.70;90.50;;;;;;5072011;28;20016;-45
2022/04/25 02:08:05;;;;;;;18.70;8.30;;;7.80;90.50;;;;;;5072231;28;20073;-44
2022/04/25 02:10:31;;;;;;;20.27;8.60;;;7.80;90.50;;;;;;5072011;28;20097;-44
2022/04/25 02:12:56;;;;;;;16.17;8.85;;;7.80;90.80;;;;;;5071887;28;20391;-44
2022/04/25 02:15:22;;;;;;;19.17;8.48;;;7.80;90.40;;;;;;5071745;28;20103;-47
2022/04/25 02:17:48;;;;;;;16.27;8.02;;;7.80;90.50;;;;;;5072048;28;20049;-43
2022/04/25 02:20:14;;;;;;;17.75;8.18;;;7.80;90.50;;;;;;5072025;28;20032;-49
2022/04/25 02:22:39;;;;;;;18.58;8.70;;;7.80;90.50;;;;;;5071891;28;20111;-48
2022/04/25 02:25:06;;;;;;;19.05;8.60;;;7.80;90.40;;;;;;5071617;28;20099;-44
2022/04/25 02:27:32;;;;;;;17.52;9.15;;;7.70;90.50;;;;;;5071088;28;20025;-41
2022/04/25 02:29:58;;;;;;;18.27;8.30;;;7.70;90.90;;;;;;5071774;28;20540;-44
2022/04/25 02:32:28;;;;;;;18.70;8.73;;;7.70;90.60;;;;;;5071423;28;20127;-43
2022/04/25 02:34:59;;;;;;;14.82;8.40;;;7.70;90.60;;;;;;5071217;28;20032;-50
2022/04/25 02:37:25;;;;;;;14.90;7.55;;;7.70;90.60;;;;;;5051780;28;20056;-43
2022/04/25 02:39:51;;;;;;;24.42;8.52;;;7.60;90.60;;;;;;5054533;28;20384;-44
2022/04/25 02:42:17;;;;;;;18.90;9.10;;;7.60;90.60;;;;;;5071602;28;20036;-50
2022/04/25 02:44:42;;;;;;;21.17;7.80;;;7.70;90.70;;;;;;5071536;28;20024;-44
2022/04/25 02:47:11;;;;;;;18.50;8.38;;;7.60;90.70;;;;;;5071117;28;20021;-43
2022/04/25 02:49:36;;;;;;;18.83;8.80;;;7.60;90.70;;;;;;5071665;28;20078;-45
2022/04/25 02:52:02;;;;;;;15.55;8.18;;;7.60;90.80;;;;;;5071315;28;20036;-40
2022/04/25 02:54:28;;;;;;;16.85;8.35;;;7.60;90.80;;;;;;5071323;28;20037;-40
2022/04/25 02:56:55;;;;;;;17.48;8.75;;;7.60;90.90;;;;;;5069937;28;20024;-41
2022/04/25 02:59:21;;;;;;;17.63;8.65;;;7.70;90.80;;;;;;5071461;28;20107;-40
2022/04/25 03:01:47;;;;;;;17.67;8.95;;;7.70;90.90;;;;;;5071581;28;20044;-40
2022/04/25 03:04:12;;;;;;;21.58;8.40;;;7.70;90.70;;;;;;5071230;28;20490;-43
2022/04/25 03:06:38;;;;;;;16.67;9.07;;;7.80;90.60;;;;;;5071047;28;20027;-40
2022/04/25 03:09:03;;;;;;;17.02;9.13;;;7.80;90.60;;;;;;5071139;28;20036;-40
2022/04/25 03:11:29;;;;;;;17.98;8.13;;;7.90;90.40;;;;;;5071011;28;20376;-41
2022/04/25 03:13:55;;;;;;;23.02;8.98;;;7.90;90.30;;;;;;5071121;28;20040;-40
2022/04/25 03:16:21;;;;;;;19.48;8.68;;;7.90;90.20;;;;;;5069385;28;20506;-40
2022/04/25 03:18:48;;;;;;;20.33;9.10;;;7.90;90.30;;;;;;5069510;28;20052;-46
2022/04/25 03:21:14;;;;;;;18.95;9.27;;;7.90;90.40;;;;;;5071074;28;20021;-49
2022/04/25 03:23:39;;;;;;;13.35;8.43;;;7.80;90.40;;;;;;5071044;28;20036;-51
2022/04/25 03:26:06;;;;;;;24.88;9.35;;;7.80;90.40;;;;;;5070855;28;20028;-56
2022/04/25 03:28:32;;;;;;;17.08;8.88;;;7.80;90.40;;;;;;5071042;28;20035;-49
2022/04/25 03:30:58;;;;;;;16.67;8.68;;;7.80;90.30;;;;;;5071024;28;20480;-47
2022/04/25 03:33:24;;;;;;;15.80;8.95;;;7.90;90.30;;;;;;5070896;28;20028;-47
2022/04/25 03:35:50;;;;;;;13.52;8.18;;;7.80;90.20;;;;;;5070672;28;20099;-53
2022/04/25 03:38:18;;;;;;;14.02;8.90;;;7.90;90.20;;;;;;5070886;28;20456;-43
2022/04/25 03:40:45;;;;;;;19.38;8.65;;;7.90;90.10;;;;;;5070913;28;20016;-54
2022/04/25 03:43:10;;;;;;;15.30;8.18;;;7.90;90.00;;;;;;5070807;28;20031;-49
2022/04/25 03:45:37;;;;;;;14.75;7.80;;;7.90;89.90;;;;;;5073642;28;20032;-55
2022/04/25 03:48:03;;;;;;;15.75;8.25;;;7.90;90.00;;;;;;5074666;28;20024;-52
2022/04/25 03:50:33;;;;;;;17.88;8.57;;;8.00;90.00;;;;;;5074828;28;20513;-52
2022/04/25 03:53:07;;;;;;;14.27;8.57;;;8.00;90.00;;;;;;5074740;28;20032;-47
2022/04/25 03:58:18;;;;;;;19.83;9.02;;;8.00;89.60;;;;;;5075090;28;20039;-54
2022/04/25 04:00:44;;;;;;;16.27;8.80;;;8.10;89.30;;;;;;5074856;28;20097;-49
2022/04/25 04:03:12;;;;;;;15.82;8.13;;;8.00;89.30;;;;;;5074675;28;20551;-42
2022/04/25 04:05:40;;;;;;;15.98;8.52;;;8.10;89.40;;;;;;5074186;28;20109;-43
2022/04/25 04:08:06;;;;;;;16.23;9.10;;;8.10;89.10;;;;;;5074712;28;20024;-47
2022/04/25 04:10:31;;;;;;;15.52;9.30;;;8.10;89.20;;;;;;5074502;28;20021;-53
2022/04/25 04:12:59;;;;;;;14.35;8.88;;;8.10;89.10;;;;;;5074206;28;20032;-44
2022/04/25 04:15:25;;;;;;;20.00;8.93;;;8.10;89.40;;;;;;5074063;28;20094;-50
2022/04/25 04:17:51;;;;;;;16.58;8.32;;;8.10;89.10;;;;;;5074010;28;20445;-56
2022/04/25 04:20:16;;;;;;;21.00;9.38;;;8.10;89.30;;;;;;5074300;28;20104;-46
2022/04/25 04:22:42;;;;;;;17.38;9.13;;;8.10;88.80;;;;;;5074244;28;20021;-49
2022/04/25 04:25:13;;;;;;;15.23;8.70;;;8.10;88.90;;;;;;5073950;28;20017;-49
2022/04/25 04:27:41;;;;;;;17.50;8.23;;;8.10;89.10;;;;;;5073953;28;20400;-47
2022/04/25 04:30:18;;;;;;;15.43;8.68;;;8.10;88.90;;;;;;5073946;28;20471;-42
2022/04/25 04:32:44;;;;;;;16.20;9.38;;;8.10;88.80;;;;;;5074012;28;20037;-51
2022/04/25 04:35:15;;;;;;;17.90;9.60;;;8.10;88.50;;;;;;5073938;28;20025;-52
2022/04/25 04:37:41;;;;;;;15.88;9.45;;;8.10;88.80;;;;;;5073833;28;20391;-47
2022/04/25 04:42:53;;;;;;;20.20;10.90;;;8.10;88.50;;;;;;5074022;28;20035;-40
2022/04/25 04:45:19;;;;;;;14.30;8.68;;;8.10;88.60;;;;;;5073695;28;20020;-48
2022/04/25 04:47:45;;;;;;;14.57;9.35;;;8.10;88.70;;;;;;5073818;28;20031;-42
2022/04/25 04:50:14;;;;;;;20.13;8.95;;;8.10;88.40;;;;;;5073586;28;20458;-50
2022/04/25 04:52:45;;;;;;;16.45;9.77;;;8.00;88.60;;;;;;5073643;28;20040;-55
2022/04/25 04:55:11;;;;;;;15.02;8.95;;;8.00;88.00;;;;;;5073357;28;20025;-51
2022/04/25 04:57:38;;;;;;;15.15;9.23;;;8.00;87.90;;;;;;5072882;28;20071;-40
2022/04/25 05:00:13;;;;;;;21.27;10.10;;;8.00;87.80;;;;;;5073391;28;20028;-51
2022/04/25 05:02:39;;;;;;;17.67;9.80;;;8.00;87.90;;;;;;5073475;28;20044;-48
2022/04/25 05:05:05;;;;;;;17.23;9.25;;;8.00;88.30;;;;;;5073195;28;20172;-51
2022/04/25 05:07:31;;;;;;;18.70;9.40;;;8.00;88.50;;;;;;5073486;28;20127;-47
2022/04/25 05:09:57;;;;;;;22.08;9.85;;;8.10;88.60;;;;;;5073140;28;20170;-49
2022/04/25 05:12:23;;;;;;;19.35;10.18;;;8.10;88.50;;;;;;5073217;28;20040;-47
2022/04/25 05:14:48;;;;;;;17.15;8.90;;;8.10;88.90;;;;;;5073326;28;20027;-52
2022/04/25 05:17:14;;;;;;;15.63;9.73;;;8.10;88.50;;;;;;5073024;28;20051;-43
2022/04/25 05:19:40;;;;;;;16.15;9.48;;;8.20;88.50;;;;;;5072428;28;20052;-53
2022/04/25 05:22:05;;;;;;;17.08;9.18;;;8.20;88.40;;;;;;5070598;28;20033;-45
2022/04/25 05:24:31;;;;;;;13.93;8.18;;;8.30;88.50;;;;;;5071404;28;20048;-40
2022/04/25 05:26:56;;;;;;;12.90;8.48;;;8.30;88.10;;;;;;5070651;28;20059;-44
2022/04/25 05:29:22;;;;;;;15.55;9.15;;;8.30;87.90;;;;;;5072310;28;20491;-46
2022/04/25 05:31:51;;;;;;;15.50;8.70;;;8.40;87.60;;;;;;5072145;28;20032;-42
2022/04/25 05:34:18;;;;;;;16.65;9.40;;;8.40;87.70;;;;;;5072784;28;20379;-44
2022/04/25 05:36:44;;;;;;;14.25;8.98;;;8.40;87.60;;;;;;5072726;28;20025;-42
2022/04/25 05:39:09;;;;;;;14.75;8.90;;;8.40;87.20;;;;;;5072782;28;20429;-42
2022/04/25 05:41:37;;;;;;;16.80;8.93;;;8.50;87.20;;;;;;5072815;28;20112;-41
2022/04/25 05:44:03;;;;;;;16.50;8.77;;;8.50;87.20;;;;;;5072730;28;20029;-45
2022/04/25 05:46:29;;;;;;;18.77;9.05;;;8.40;86.80;;;;;;5072600;28;20032;-49
2022/04/25 05:54:23;;;;;;;16.17;8.85;;;8.50;86.10;;;;;;5072950;28;20629;-45
2022/04/25 05:56:49;;;;;;;14.05;8.40;;;8.60;86.10;;;;;;5072255;28;20024;-50
2022/04/25 05:59:14;;;;;;;17.33;8.60;;;8.70;85.90;;;;;;5072056;28;20082;-45
2022/04/25 06:01:40;;;;;;;15.82;9.32;;;8.80;85.60;;;;;;5072263;28;20029;-57
2022/04/25 06:04:06;;;;;;;17.15;10.00;;;8.90;84.60;;;;;;5070764;28;20563;-41
2022/04/25 06:06:31;;;;;;;17.38;8.70;;;9.00;84.20;;;;;;5071068;28;20036;-45
2022/04/25 06:08:57;;;;;;;17.73;8.57;;;9.10;84.30;;;;;;5067110;28;20103;-45
2022/04/25 06:11:22;;;;;;;14.23;8.80;;;9.10;83.40;;;;;;5071021;28;20024;-41
2022/04/25 06:13:50;;;;;;;13.63;8.10;;;9.10;82.60;;;;;;5072020;28;20395;-47
2022/04/25 06:16:16;;;;;;;17.50;8.20;;;9.00;82.70;;;;;;5071689;28;20048;-48
2022/04/25 06:18:42;;;;;;;15.48;8.55;;;8.90;83.40;;;;;;5070681;28;20495;-46
2022/04/25 06:21:08;;;;;;;18.77;8.32;;;8.80;83.40;;;;;;5071093;28;20045;-53
2022/04/25 06:23:34;;;;;;;14.43;7.50;;;8.80;83.70;;;;;;5071677;28;20064;-43
2022/04/25 06:25:59;;;;;;;13.98;7.43;;;8.90;83.50;;;;;;5070349;28;20075;-43
2022/04/25 06:28:25;;;;;;;14.68;7.97;;;9.10;83.90;;;;;;5069944;28;20475;-48
2022/04/25 06:30:51;;;;;;;14.38;8.20;;;9.30;83.30;;;;;;5069701;28;20627;-46
2022/04/25 06:33:17;;;;;;;16.40;7.80;;;9.50;82.40;;;;;;5069528;28;20448;-44
2022/04/25 06:35:44;;;;;;;15.23;8.05;;;9.50;81.60;;;;;;5069831;28;20487;-42
2022/04/25 06:38:11;;;;;;;16.17;8.18;;;9.50;82.00;;;;;;5069356;28;20040;-44
2022/04/25 06:40:37;;;;;;;14.48;7.60;;;9.60;81.90;;;;;;5071045;28;20096;-55
2022/04/25 06:43:03;;;;;;;16.13;9.07;;;9.60;81.20;;;;;;5071513;28;20028;-52
2022/04/25 06:45:30;;;;;;;18.80;8.85;;;9.50;81.40;;;;;;5071464;28;20036;-45
2022/04/25 06:47:56;;;;;;;14.35;8.93;;;9.50;81.50;;;;;;5070138;28;20337;-48
2022/04/25 06:50:23;;;;;;;15.38;8.20;;;9.40;80.90;;;;;;5071419;28;20134;-53
2022/04/25 06:52:49;;;;;;;17.90;7.72;;;9.30;81.00;;;;;;5071257;28;20111;-50
2022/04/25 06:55:15;;;;;;;15.77;7.68;;;9.30;82.10;;;;;;5071321;28;20162;-43
2022/04/25 06:57:40;;;;;;;17.95;7.80;;;9.40;82.00;;;;;;5071337;28;20028;-45
2022/04/25 07:00:08;;;;;;;10.43;7.07;;;9.50;81.60;;;;;;5071296;28;20028;-47
2022/04/25 07:02:37;;;;;;;23.15;7.63;;;9.60;82.50;;;;;;5071160;28;20051;-46
2022/04/25 07:05:07;;;;;;;18.50;6.53;;;9.60;81.10;;;;;;5070297;28;20008;-49
2022/04/25 07:07:33;;;;;;;16.55;7.25;;;9.60;80.20;;;;;;5071168;28;20060;-49
2022/04/25 07:09:58;;;;;;;16.08;6.60;;;9.70;81.20;;;;;;5071142;28;20056;-48
2022/04/25 07:12:27;;;;;;;16.38;6.63;;;9.70;79.80;;;;;;5070406;28;20040;-47
2022/04/25 07:14:53;;;;;;;12.23;6.13;;;9.90;81.10;;;;;;5070118;28;20031;-43
2022/04/25 07:17:18;;;;;;;16.08;6.30;;;10.00;79.30;;;;;;5070217;28;20116;-50
2022/04/25 07:19:44;;;;;;;15.60;5.85;;;10.20;79.30;;;;;;5070069;28;20127;-50
2022/04/25 07:30:23;;;;;;;12.35;5.70;;;11.00;75.50;;;;;;5071166;28;20067;-43
2022/04/25 07:32:49;;;;;;;16.13;5.30;;;11.10;74.80;;;;;;5070948;28;20480;-42
2022/04/25 07:35:15;;;;;;;10.38;4.57;;;11.00;73.60;;;;;;5070890;28;20032;-41
2022/04/25 07:37:42;;;;;;;14.23;5.25;;;11.00;75.40;;;;;;5069886;28;20104;-48
2022/04/25 07:40:08;;;;;;;13.50;4.85;;;10.90;74.00;;;;;;5069736;28;20012;-45
2022/04/25 07:42:39;;;;;;;19.65;5.50;;;11.00;74.30;;;;;;5070329;28;20032;-42
2022/04/25 07:45:06;;;;;;;12.55;4.75;;;10.90;74.20;;;;;;5070965;28;20029;-42
2022/04/25 07:47:32;;;;;;;16.10;5.22;;;11.10;74.10;;;;;;5070142;28;20051;-49
2022/04/25 07:49:59;;;;;;;13.48;4.88;;;11.10;73.60;;;;;;5070848;28;20029;-50
2022/04/25 07:52:24;;;;;;;10.73;4.70;;;11.60;74.20;;;;;;5070179;28;20028;-49
2022/04/25 07:54:52;;;;;;;11.07;4.45;;;11.80;69.80;;;;;;5070353;28;20047;-49
2022/04/25 07:57:19;;;;;;;11.80;4.28;;;12.10;69.40;;;;;;5070316;28;20048;-52
2022/04/25 07:59:44;;;;;;;10.65;4.18;;;12.20;67.50;;;;;;5070206;28;20360;-47
2022/04/25 08:02:10;;;;;;;10.00;4.07;;;12.80;67.30;;;;;;5070332;28;20039;-46
2022/04/25 08:04:36;;;;;;;10.07;4.20;;;13.00;66.30;;;;;;5070154;28;20205;-44
2022/04/25 08:07:02;;;;;;;9.85;4.25;;;13.20;64.50;;;;;;5068271;28;20055;-42
2022/04/25 08:09:27;;;;;;;11.23;3.80;;;12.90;65.10;;;;;;5069952;28;20092;-48
2022/04/25 08:17:56;;;;;;;14.52;4.35;;;12.50;65.50;;;;;;5070044;28;20037;-46
2022/04/25 08:20:08;;;;;;;11.82;4.82;;;12.10;69.90;;;;;;5070500;28;20098;-42
2022/04/25 08:22:34;;;;;;;11.20;4.43;;;11.90;69.30;;;;;;5069283;28;20036;-47
2022/04/25 08:25:01;;;;;;;14.07;5.35;;;11.80;68.80;;;;;;5070570;28;20434;-47
2022/04/25 08:27:27;;;;;;;11.13;5.93;;;11.80;69.40;;;;;;5070473;28;20075;-47
2022/04/25 08:29:53;;;;;;;9.15;4.97;;;11.70;69.00;;;;;;5070467;28;20037;-48
2022/04/25 08:32:19;;;;;;;14.07;4.85;;;11.60;70.90;;;;;;5072474;28;20135;-49
2022/04/25 08:34:45;;;;;;;9.63;4.53;;;11.70;70.00;;;;;;5073950;28;20068;-49
2022/04/25 08:37:11;;;;;;;12.52;4.78;;;11.60;69.80;;;;;;5073958;28;20032;-46
2022/04/25 08:39:36;;;;;;;9.95;4.85;;;11.80;70.10;;;;;;5073057;28;20028;-46
2022/04/25 08:42:03;;;;;;;10.93;4.95;;;11.60;69.90;;;;;;5073681;28;20028;-42
2022/04/25 08:44:31;;;;;;;16.27;6.80;;;11.70;69.70;;;;;;5073866;28;20029;-45
2022/04/25 08:46:59;;;;;;;10.95;4.78;;;11.80;69.70;;;;;;5073369;28;20043;-45
2022/04/25 08:49:25;;;;;;;13.52;4.80;;;11.90;68.70;;;;;;5073842;28;20032;-52
2022/04/25 08:51:58;;;;;;;11.02;4.70;;;12.20;69.40;;;;;;5073522;28;20029;-42
2022/04/25 08:54:34;;;;;;;12.30;4.40;;;12.20;67.30;;;;;;5073075;28;20036;-48
2022/04/25 08:57:02;;;;;;;14.30;4.88;;;12.30;67.50;;;;;;5073420;28;20107;-42
2022/04/25 08:59:31;;;;;;;6.93;3.28;;;13.30;70.10;;;;;;5073508;28;20380;-50
2022/04/25 09:01:57;;;;;;;7.38;3.65;;;15.50;64.20;;;;;;5073512;28;20033;-53
2022/04/25 09:04:23;;;;;;;8.55;3.58;;;17.80;57.70;;;;;;5072672;28;20119;-42
2022/04/25 09:06:52;;;;;;;6.72;3.47;;;19.70;50.70;;;;;;5073561;28;20058;-47
2022/04/25 09:09:18;;;;;;;9.43;3.10;;;21.30;44.30;;;;;;5073211;28;20031;-52
2022/04/25 09:14:29;;;;;;;11.75;3.55;;;24.50;40.10;;;;;;5073536;28;20040;-50
2022/04/25 09:16:56;;;;;;;7.10;2.63;;;25.70;37.00;;;;;;5073209;28;20016;-47
2022/04/25 09:19:22;;;;;;;8.15;2.92;;;25.40;33.70;;;;;;5073051;28;20060;-43
2022/04/25 09:21:48;;;;;;;8.18;3.35;;;25.00;32.90;;;;;;5073259;28;20494;-46
2022/04/25 09:24:45;;;;;;;6.70;2.92;;;25.10;33.40;;;;;;5073083;28;20028;-53
2022/04/25 09:27:18;;;;;;;8.90;2.72;;;26.90;32.50;;;;;;5072798;28;20040;-51
2022/04/25 09:29:46;;;;;;;8.75;2.75;;;27.00;29.50;;;;;;5073149;28;20024;-49
2022/04/25 09:32:13;;;;;;;7.20;2.85;;;25.90;30.30;;;;;;5071854;28;20044;-48
2022/04/25 09:37:44;;;;;;;8.38;3.38;;;25.50;31.10;;;;;;5069766;28;20545;-43
2022/04/25 09:40:11;;;;;;;10.68;3.00;;;25.20;32.40;;;;;;5069682;28;20033;-49
2022/04/25 09:42:36;;;;;;;8.35;2.97;;;24.70;33.70;;;;;;5071238;28;20052;-48
2022/04/25 09:45:03;;;;;;;8.93;3.35;;;24.50;37.10;;;;;;5072113;28;20068;-44
2022/04/25 09:47:30;;;;;;;7.35;3.35;;;24.00;34.20;;;;;;5070798;28;20016;-47
2022/04/25 09:50:13;;;;;;;7.50;3.10;;;24.20;35.50;;;;;;5071090;28;20043;-47
2022/04/25 09:53:03;;;;;;;6.63;2.90;;;24.60;32.40;;;;;;5069305;28;20431;-52
2022/04/25 09:55:34;;;;;;;6.90;2.92;;;25.20;33.60;;;;;;5070855;28;20024;-52
2022/04/25 09:58:23;;;;;;;7.50;2.85;;;25.80;35.40;;;;;;5070314;28;20028;-56
2022/04/25 10:00:49;;;;;;;;;;;25.80;31.80;;;;;;5071327;28;20041;-49
2022/04/25 10:03:17;;;;;;;7.03;2.92;;;25.40;32.30;;;;;;5070722;28;19912;-47
2022/04/25 10:05:45;;;;;;;7.22;2.88;;;24.60;32.70;;;;;;5070877;28;20028;-52
2022/04/25 10:08:12;;;;;;;7.15;3.10;;;24.00;33.30;;;;;;5068620;28;20029;-49
2022/04/25 10:10:49;;;;;;;6.97;3.20;;;24.30;36.60;;;;;;5070308;28;20535;-42
2022/04/25 10:13:14;;;;;;;7.55;3.30;;;24.10;32.50;;;;;;5070879;28;20032;-49
2022/04/25 10:15:41;;;;;;;8.65;3.22;;;24.30;32.50;;;;;;5069616;28;20066;-47
2022/04/25 10:18:09;;;;;;;7.35;3.40;;;25.10;33.10;;;;;;5070666;28;20045;-48
2022/04/25 10:20:36;;;;;;;6.85;3.00;;;25.40;31.90;;;;;;5070698;28;20016;-45
2022/04/25 10:23:10;;;;;;;5.80;2.85;;;24.80;31.40;;;;;;5070403;28;20031;-51
2022/04/25 10:25:37;;;;;;;7.38;3.03;;;25.60;33.30;;;;;;5070352;28;20013;-45
2022/04/25 10:28:17;;;;;;;7.82;3.05;;;26.40;31.70;;;;;;5070832;28;20395;-51
2022/04/25 10:30:47;;;;;;;6.68;3.08;;;26.90;29.70;;;;;;5069884;28;20021;-49
2022/04/25 10:33:16;;;;;;;5.07;3.05;;;27.50;30.70;;;;;;5070203;28;20491;-52
2022/04/25 10:35:43;;;;;;;8.13;3.20;;;27.40;30.30;;;;;;5071033;28;20444;-47
2022/04/25 10:44:12;;;;;;;9.80;3.15;;;24.90;32.40;;;;;;5070120;28;20090;-55
2022/04/25 10:47:05;;;;;;;6.43;3.33;;;25.40;34.60;;;;;;5070699;28;20032;-51
2022/04/25 10:49:37;;;;;;;7.18;3.78;;;24.60;30.70;;;;;;5070775;28;20020;-49
2022/04/25 10:52:05;;;;;;;9.90;3.40;;;23.20;32.50;;;;;;5070572;28;20556;-56
2022/04/25 10:54:51;;;;;;;6.07;2.95;;;22.10;35.70;;;;;;5069759;28;20557;-43
2022/04/25 10:57:18;;;;;;;7.30;3.47;;;22.40;38.30;;;;;;5070414;28;20483;-49
2022/04/25 10:59:44;;;;;;;10.30;3.42;;;22.70;34.60;;;;;;5070535;28;20054;-49
2022/04/25 11:02:36;;;;;;;7.38;3.28;;;23.50;36.40;;;;;;5070143;28;20499;-41
2022/04/25 11:05:27;;;;;;;7.68;3.20;;;24.40;36.60;;;;;;5070031;28;20472;-43
2022/04/25 11:08:19;;;;;;;9.38;3.20;;;25.20;31.70;;;;;;5069219;28;20043;-48
2022/04/25 11:10:51;;;;;;;11.20;3.22;;;24.40;30.70;;;;;;5069290;28;20484;-49
2022/04/25 11:13:18;;;;;;;5.97;3.17;;;25.30;33.60;;;;;;5068034;28;20044;-50
2022/04/25 11:15:49;;;;;;;8.93;3.58;;;26.10;33.70;;;;;;5069689;28;20032;-43
2022/04/25 11:18:35;;;;;;;5.90;3.10;;;26.70;30.80;;;;;;5069270;28;20090;-55
2022/04/25 11:21:16;;;;;;;6.78;3.08;;;27.10;32.70;;;;;;5068218;28;20395;-46
2022/04/25 11:23:44;;;;;;;6.45;3.10;;;27.60;30.30;;;;;;5068340;28;20029;-47
2022/04/25 11:26:22;;;;;;;9.82;3.70;;;27.60;28.40;;;;;;5069941;28;20283;-45
2022/04/25 11:28:54;;;;;;;6.57;3.17;;;27.20;29.90;;;;;;5062363;28;20021;-50
2022/04/25 11:31:22;;;;;;;8.65;3.45;;;26.70;30.70;;;;;;5068724;28;20107;-45
2022/04/25 11:33:50;;;;;;;7.33;3.23;;;25.10;31.40;;;;;;5067908;28;20043;-43
2022/04/25 11:36:19;;;;;;;13.82;3.70;;;24.20;31.30;;;;;;5068745;28;20542;-47
2022/04/25 11:41:31;;;;;;;7.53;3.20;;;24.80;33.10;;;;;;5069056;28;20130;-49
2022/04/25 11:43:58;;;;;;;5.80;3.22;;;24.30;31.60;;;;;;5068429;28;20170;-50
2022/04/25 11:46:27;;;;;;;7.00;3.67;;;23.70;35.40;;;;;;5068246;28;20024;-52
2022/04/25 11:48:54;;;;;;;7.95;3.13;;;23.60;34.20;;;;;;5068748;28;20395;-46
2022/04/25 11:51:30;;;;;;;7.03;3.28;;;22.90;35.40;;;;;;5068122;28;20048;-47
2022/04/25 11:54:01;;;;;;;6.00;3.47;;;22.30;35.60;;;;;;5069236;28;20083;-45
2022/04/25 11:56:28;;;;;;;7.68;3.10;;;21.90;37.80;;;;;;5069277;28;20449;-55
2022/04/25 11:58:55;;;;;;;7.38;3.83;;;21.00;37.90;;;;;;5069046;28;20391;-47
2022/04/25 12:01:42;;;;;;;8.48;3.60;;;20.00;39.50;;;;;;5069029;28;20433;-52
2022/04/25 12:04:24;;;;;;;10.70;4.30;;;19.00;44.00;;;;;;5066681;28;20071;-44
2022/04/25 12:06:54;;;;;;;8.95;4.70;;;18.20;47.10;;;;;;5070530;28;20020;-48
2022/04/25 12:15:34;;;;;;;;;;;16.80;50.20;;;;;;5074204;28;20024;-46
2022/04/25 12:18:17;;;;;;;7.78;3.78;;;16.80;50.40;;;;;;5072344;28;20378;-46
2022/04/25 12:20:45;;;;;;;8.95;4.13;;;16.50;50.30;;;;;;5076110;28;20028;-45
2022/04/25 12:23:23;;;;;;;10.18;4.22;;;16.60;51.50;;;;;;5090459;28;20483;-48
2022/04/25 12:25:49;;;;;;;12.20;4.20;;;16.80;51.90;;;;;;5072525;28;20043;-46
2022/04/25 12:28:18;;;;;;;8.77;4.22;;;16.90;50.20;;;;;;5073039;28;20085;-47
2022/04/25 12:31:11;;;;;;;6.78;4.10;;;16.70;49.20;;;;;;5072073;28;20025;-44
2022/04/25 12:33:39;;;;;;;7.03;3.90;;;16.60;49.50;;;;;;5072147;28;20040;-48
2022/04/25 12:36:16;;;;;;;8.98;4.18;;;16.30;51.10;;;;;;5072435;28;20043;-49
2022/04/25 12:39:10;;;;;;;7.15;3.83;;;16.60;54.00;;;;;;5071742;28;20095;-48
2022/04/25 12:41:38;;;;;;;10.50;4.38;;;16.50;50.10;;;;;;5071561;28;20072;-45
2022/04/25 12:44:10;;;;;;;9.02;4.47;;;16.20;50.70;;;;;;5072441;28;20483;-51
2022/04/25 12:46:40;;;;;;;8.70;4.82;;;16.00;52.40;;;;;;5071588;28;20117;-46
2022/04/25 12:49:11;;;;;;;7.97;4.25;;;15.90;54.00;;;;;;5071430;28;20517;-44
2022/04/25 12:51:45;;;;;;;9.00;4.10;;;16.00;54.40;;;;;;5071987;28;20028;-46
2022/04/25 12:54:50;;;;;;;8.48;4.00;;;16.00;54.50;;;;;;5071830;28;20077;-44
2022/04/25 12:57:19;;;;;;;7.30;3.97;;;16.20;53.70;;;;;;5075864;28;20441;-47
2022/04/25 13:00:05;;;;;;;;;;;16.30;53.50;;;;;;5083095;28;20036;-47
2022/04/25 13:02:35;;;;;;;10.65;4.63;;;16.50;56.50;;;;;;5070045;28;19958;-48
2022/04/25 13:05:05;;;;;;;7.28;3.47;;;16.60;53.00;;;;;;5071628;28;20038;-46
2022/04/25 13:07:43;;;;;;;7.22;3.83;;;16.60;51.50;;;;;;5071609;28;20020;-49
2022/04/25 13:10:18;;;;;;;6.18;3.65;;;16.70;50.80;;;;;;5072059;28;20460;-46
2022/04/25 13:12:50;;;;;;;7.25;3.35;;;16.70;51.30;;;;;;5072291;28;20036;-44
2022/04/25 13:15:20;;;;;;;7.68;3.90;;;16.80;50.40;;;;;;5071551;28;20186;-43
2022/04/25 13:17:48;;;;;;;7.03;3.38;;;17.10;53.20;;;;;;5071312;28;20043;-43
2022/04/25 13:20:20;;;;;;;8.48;4.22;;;17.70;52.80;;;;;;5070144;28;20052;-49
2022/04/25 13:22:46;;;;;;;6.72;3.90;;;18.20;47.10;;;;;;5071292;28;20054;-50
2022/04/25 13:25:15;;;;;;;9.02;3.92;;;18.50;52.20;;;;;;5072661;28;20034;-46
2022/04/25 13:27:41;;;;;;;7.97;3.92;;;18.60;45.90;;;;;;5072794;28;20533;-51
2022/04/25 13:30:08;;;;;;;7.43;3.63;;;18.60;45.10;;;;;;5072871;28;20032;-46
2022/04/25 13:32:35;;;;;;;9.25;4.00;;;18.40;46.50;;;;;;5072735;28;20479;-47
2022/04/25 13:35:01;;;;;;;5.70;3.63;;;17.90;46.30;;;;;;5072908;28;20554;-43
2022/04/25 13:37:30;;;;;;;7.28;3.42;;;17.50;47.40;;;;;;5072724;28;20021;-46
2022/04/25 13:39:57;;;;;;;9.07;3.83;;;17.10;47.30;;;;;;5072803;28;20121;-45
2022/04/25 13:42:22;;;;;;;8.85;4.00;;;17.00;49.00;;;;;;5072660;28;20107;-44